sensor_id;sensor_type;location;lat;lon;timestamp;temperature;humidity
14783;DHT22;7483;50.498;12.138;2023-02-22T00:01:55;9.90;99.90
14783;DHT22;7483;50.498;12.138;2023-02-22T00:04:37;9.90;99.90
14783;DHT22;7483;50.498;12.138;2023-02-22T00:07:05;9.90;99.90
14783;DHT22;7483;50.498;12.138;2023-02-22T00:09:35;9.90;99.90
14783;DHT22;7483;50.498;12.138;2023-02-22T00:12:03;9.80;99.90
14783;DHT22;7483;50.498;12.138;2023-02-22T00:14:31;9.80;99.90
14783;DHT22;7483;50.498;12.138;2023-02-22T00:16:59;9.70;99.90
14783;DHT22;7483;50.498;12.138;2023-02-22T00:19:27;9.80;99.90
14783;DHT22;7483;50.498;12.138;2023-02-22T00:21:56;9.80;99.90
14783;DHT22;7483;50.498;12.138;2023-02-22T00:24:25;9.80;99.90
14783;DHT22;7483;50.498;12.138;2023-02-22T00:26:56;9.70;99.90
14783;DHT22;7483;50.498;12.138;2023-02-22T00:29:24;9.70;99.90
14783;DHT22;7483;50.498;12.138;2023-02-22T00:31:52;9.70;99.90
14783;DHT22;7483;50.498;12.138;2023-02-22T00:34:21;9.70;99.90
14783;DHT22;7483;50.498;12.138;2023-02-22T00:36:50;9.70;99.90
14783;DHT22;7483;50.498;12.138;2023-02-22T00:39:18;9.70;99.90
14783;DHT22;7483;50.498;12.138;2023-02-22T00:41:46;9.70;99.90
14783;DHT22;7483;50.498;12.138;2023-02-22T00:44:16;9.60;99.90
14783;DHT22;7483;50.498;12.138;2023-02-22T00:46:44;9.50;99.90
14783;DHT22;7483;50.498;12.138;2023-02-22T00:49:13;9.50;99.90
14783;DHT22;7483;50.498;12.138;2023-02-22T00:51:41;9.50;99.90
14783;DHT22;7483;50.498;12.138;2023-02-22T00:54:09;9.60;99.90
14783;DHT22;7483;50.498;12.138;2023-02-22T00:56:37;9.60;99.90
14783;DHT22;7483;50.498;12.138;2023-02-22T00:59:05;9.60;99.90
14783;DHT22;7483;50.498;12.138;2023-02-22T01:01:35;9.60;99.90
14783;DHT22;7483;50.498;12.138;2023-02-22T01:04:04;9.60;99.90
14783;DHT22;7483;50.498;12.138;2023-02-22T01:06:32;9.60;99.90
14783;DHT22;7483;50.498;12.138;2023-02-22T01:09:01;9.60;99.90
14783;DHT22;7483;50.498;12.138;2023-02-22T01:11:29;9.60;99.90
14783;DHT22;7483;50.498;12.138;2023-02-22T01:13:57;9.60;99.90
14783;DHT22;7483;50.498;12.138;2023-02-22T01:16:26;9.60;99.90
14783;DHT22;7483;50.498;12.138;2023-02-22T01:18:55;9.60;99.90
14783;DHT22;7483;50.498;12.138;2023-02-22T01:21:23;9.70;99.90
14783;DHT22;7483;50.498;12.138;2023-02-22T01:23:53;9.60;99.90
14783;DHT22;7483;50.498;12.138;2023-02-22T01:26:21;9.60;99.90
14783;DHT22;7483;50.498;12.138;2023-02-22T01:28:49;9.60;99.90
14783;DHT22;7483;50.498;12.138;2023-02-22T01:31:17;9.60;99.90
14783;DHT22;7483;50.498;12.138;2023-02-22T01:33:45;9.60;99.90
14783;DHT22;7483;50.498;12.138;2023-02-22T01:36:15;9.60;99.90
14783;DHT22;7483;50.498;12.138;2023-02-22T01:38:45;9.50;99.90
14783;DHT22;7483;50.498;12.138;2023-02-22T01:41:13;9.40;99.90
14783;DHT22;7483;50.498;12.138;2023-02-22T01:43:44;9.40;99.90
14783;DHT22;7483;50.498;12.138;2023-02-22T01:46:19;9.40;99.90
14783;DHT22;7483;50.498;12.138;2023-02-22T01:48:52;9.40;99.90
14783;DHT22;7483;50.498;12.138;2023-02-22T01:51:28;9.40;99.90
14783;DHT22;7483;50.498;12.138;2023-02-22T01:54:06;9.40;99.90
14783;DHT22;7483;50.498;12.138;2023-02-22T01:56:45;9.40;99.90
14783;DHT22;7483;50.498;12.138;2023-02-22T01:59:18;9.40;99.90
14783;DHT22;7483;50.498;12.138;2023-02-22T02:01:48;9.40;99.90
14783;DHT22;7483;50.498;12.138;2023-02-22T02:04:19;9.40;99.90
14783;DHT22;7483;50.498;12.138;2023-02-22T02:06:58;9.40;99.90
14783;DHT22;7483;50.498;12.138;2023-02-22T02:09:31;9.40;99.90
14783;DHT22;7483;50.498;12.138;2023-02-22T02:12:03;9.40;99.90
14783;DHT22;7483;50.498;12.138;2023-02-22T02:14:34;9.30;99.90
14783;DHT22;7483;50.498;12.138;2023-02-22T02:17:06;9.30;99.90
14783;DHT22;7483;50.498;12.138;2023-02-22T02:19:42;9.30;99.90
14783;DHT22;7483;50.498;12.138;2023-02-22T02:22:38;9.30;99.90
14783;DHT22;7483;50.498;12.138;2023-02-22T02:25:44;9.30;99.90
14783;DHT22;7483;50.498;12.138;2023-02-22T02:28:48;9.20;99.90
14783;DHT22;7483;50.498;12.138;2023-02-22T02:31:53;9.20;99.90
14783;DHT22;7483;50.498;12.138;2023-02-22T02:34:33;9.10;99.90
14783;DHT22;7483;50.498;12.138;2023-02-22T02:37:09;9.10;99.90
14783;DHT22;7483;50.498;12.138;2023-02-22T02:39:49;9.00;99.90
14783;DHT22;7483;50.498;12.138;2023-02-22T02:42:21;9.00;99.90
14783;DHT22;7483;50.498;12.138;2023-02-22T02:44:57;9.00;99.90
14783;DHT22;7483;50.498;12.138;2023-02-22T02:47:33;8.90;99.90
14783;DHT22;7483;50.498;12.138;2023-02-22T02:50:08;8.90;99.90
14783;DHT22;7483;50.498;12.138;2023-02-22T02:52:40;8.90;99.90
14783;DHT22;7483;50.498;12.138;2023-02-22T02:55:10;8.90;99.90
14783;DHT22;7483;50.498;12.138;2023-02-22T02:57:40;8.90;99.90
14783;DHT22;7483;50.498;12.138;2023-02-22T03:00:09;8.80;99.90
14783;DHT22;7483;50.498;12.138;2023-02-22T03:03:06;8.80;99.90
14783;DHT22;7483;50.498;12.138;2023-02-22T03:06:00;8.80;99.90
14783;DHT22;7483;50.498;12.138;2023-02-22T03:08:42;8.80;99.90
14783;DHT22;7483;50.498;12.138;2023-02-22T03:11:18;8.80;99.90
14783;DHT22;7483;50.498;12.138;2023-02-22T03:13:52;8.90;99.90
14783;DHT22;7483;50.498;12.138;2023-02-22T03:16:32;8.90;99.90
14783;DHT22;7483;50.498;12.138;2023-02-22T03:19:10;8.90;99.90
14783;DHT22;7483;50.498;12.138;2023-02-22T03:21:45;8.90;99.90
14783;DHT22;7483;50.498;12.138;2023-02-22T03:24:23;8.90;99.90
14783;DHT22;7483;50.498;12.138;2023-02-22T03:26:59;8.90;99.90
14783;DHT22;7483;50.498;12.138;2023-02-22T03:29:39;9.00;99.90
14783;DHT22;7483;50.498;12.138;2023-02-22T03:32:15;9.00;99.90
14783;DHT22;7483;50.498;12.138;2023-02-22T03:34:53;9.00;99.90
14783;DHT22;7483;50.498;12.138;2023-02-22T03:37:29;9.00;99.90
14783;DHT22;7483;50.498;12.138;2023-02-22T03:40:02;9.00;99.90
14783;DHT22;7483;50.498;12.138;2023-02-22T03:42:42;9.00;99.90
14783;DHT22;7483;50.498;12.138;2023-02-22T03:45:16;9.00;99.90
14783;DHT22;7483;50.498;12.138;2023-02-22T03:47:56;9.10;99.90
14783;DHT22;7483;50.498;12.138;2023-02-22T03:50:34;9.10;99.90
14783;DHT22;7483;50.498;12.138;2023-02-22T03:53:05;9.10;99.90
14783;DHT22;7483;50.498;12.138;2023-02-22T03:55:37;9.00;99.90
14783;DHT22;7483;50.498;12.138;2023-02-22T03:58:08;9.10;99.90
14783;DHT22;7483;50.498;12.138;2023-02-22T04:00:38;9.20;99.90
14783;DHT22;7483;50.498;12.138;2023-02-22T04:03:10;9.20;99.90
14783;DHT22;7483;50.498;12.138;2023-02-22T04:05:39;9.00;99.90
14783;DHT22;7483;50.498;12.138;2023-02-22T04:08:07;9.00;99.90
14783;DHT22;7483;50.498;12.138;2023-02-22T04:10:35;9.00;99.90
14783;DHT22;7483;50.498;12.138;2023-02-22T04:13:04;9.00;99.90
14783;DHT22;7483;50.498;12.138;2023-02-22T04:15:35;8.90;99.90
14783;DHT22;7483;50.498;12.138;2023-02-22T04:18:06;9.00;99.90
14783;DHT22;7483;50.498;12.138;2023-02-22T04:20:35;9.00;99.90
14783;DHT22;7483;50.498;12.138;2023-02-22T04:23:09;9.10;99.90
14783;DHT22;7483;50.498;12.138;2023-02-22T04:25:40;9.20;99.90
14783;DHT22;7483;50.498;12.138;2023-02-22T04:28:12;9.10;99.90
14783;DHT22;7483;50.498;12.138;2023-02-22T04:30:52;9.00;99.90
14783;DHT22;7483;50.498;12.138;2023-02-22T04:33:21;9.10;99.90
14783;DHT22;7483;50.498;12.138;2023-02-22T04:35:49;9.10;99.90
14783;DHT22;7483;50.498;12.138;2023-02-22T04:38:19;9.10;99.90
14783;DHT22;7483;50.498;12.138;2023-02-22T04:40:47;9.10;99.90
14783;DHT22;7483;50.498;12.138;2023-02-22T04:43:15;9.00;99.90
14783;DHT22;7483;50.498;12.138;2023-02-22T04:45:43;9.00;99.90
14783;DHT22;7483;50.498;12.138;2023-02-22T04:48:11;9.00;99.90
14783;DHT22;7483;50.498;12.138;2023-02-22T04:50:40;9.00;99.90
14783;DHT22;7483;50.498;12.138;2023-02-22T04:53:08;9.10;99.90
14783;DHT22;7483;50.498;12.138;2023-02-22T04:55:39;9.10;99.90
14783;DHT22;7483;50.498;12.138;2023-02-22T04:58:07;9.10;99.90
14783;DHT22;7483;50.498;12.138;2023-02-22T05:00:36;9.00;99.90
14783;DHT22;7483;50.498;12.138;2023-02-22T05:03:05;9.00;99.90
14783;DHT22;7483;50.498;12.138;2023-02-22T05:05:34;8.90;99.90
14783;DHT22;7483;50.498;12.138;2023-02-22T05:08:02;9.00;99.90
14783;DHT22;7483;50.498;12.138;2023-02-22T05:10:30;9.00;99.90
14783;DHT22;7483;50.498;12.138;2023-02-22T05:12:59;9.00;99.90
14783;DHT22;7483;50.498;12.138;2023-02-22T05:15:31;8.90;99.90
14783;DHT22;7483;50.498;12.138;2023-02-22T05:18:02;9.00;99.90
14783;DHT22;7483;50.498;12.138;2023-02-22T05:20:32;9.00;99.90
14783;DHT22;7483;50.498;12.138;2023-02-22T05:23:02;9.00;99.90
14783;DHT22;7483;50.498;12.138;2023-02-22T05:25:31;9.00;99.90
14783;DHT22;7483;50.498;12.138;2023-02-22T05:28:03;8.90;99.90
14783;DHT22;7483;50.498;12.138;2023-02-22T05:30:36;8.90;99.90
14783;DHT22;7483;50.498;12.138;2023-02-22T05:33:06;9.00;99.90
14783;DHT22;7483;50.498;12.138;2023-02-22T05:35:35;8.90;99.90
14783;DHT22;7483;50.498;12.138;2023-02-22T05:38:03;8.90;99.90
14783;DHT22;7483;50.498;12.138;2023-02-22T05:40:32;8.90;99.90
14783;DHT22;7483;50.498;12.138;2023-02-22T05:43:01;9.00;99.90
14783;DHT22;7483;50.498;12.138;2023-02-22T05:45:30;8.90;99.90
14783;DHT22;7483;50.498;12.138;2023-02-22T05:47:58;8.90;99.90
14783;DHT22;7483;50.498;12.138;2023-02-22T05:50:26;8.90;99.90
14783;DHT22;7483;50.498;12.138;2023-02-22T05:52:54;8.90;99.90
14783;DHT22;7483;50.498;12.138;2023-02-22T05:55:23;8.90;99.90
14783;DHT22;7483;50.498;12.138;2023-02-22T05:57:52;8.90;99.90
14783;DHT22;7483;50.498;12.138;2023-02-22T06:00:24;8.90;99.90
14783;DHT22;7483;50.498;12.138;2023-02-22T06:02:54;8.90;99.90
14783;DHT22;7483;50.498;12.138;2023-02-22T06:05:23;8.90;99.90
14783;DHT22;7483;50.498;12.138;2023-02-22T06:07:51;8.90;99.90
14783;DHT22;7483;50.498;12.138;2023-02-22T06:10:20;8.90;99.90
14783;DHT22;7483;50.498;12.138;2023-02-22T06:12:49;9.00;99.90
14783;DHT22;7483;50.498;12.138;2023-02-22T06:15:19;8.90;99.90
14783;DHT22;7483;50.498;12.138;2023-02-22T06:17:50;8.90;99.90
14783;DHT22;7483;50.498;12.138;2023-02-22T06:20:20;9.00;99.90
14783;DHT22;7483;50.498;12.138;2023-02-22T06:22:50;8.90;99.90
14783;DHT22;7483;50.498;12.138;2023-02-22T06:25:21;8.80;99.90
14783;DHT22;7483;50.498;12.138;2023-02-22T06:27:50;8.80;99.90
14783;DHT22;7483;50.498;12.138;2023-02-22T06:30:21;8.80;99.90
14783;DHT22;7483;50.498;12.138;2023-02-22T06:32:52;8.70;99.90
14783;DHT22;7483;50.498;12.138;2023-02-22T06:35:21;8.60;99.90
14783;DHT22;7483;50.498;12.138;2023-02-22T06:37:49;8.60;99.90
14783;DHT22;7483;50.498;12.138;2023-02-22T06:40:18;8.50;99.90
14783;DHT22;7483;50.498;12.138;2023-02-22T06:42:47;8.40;99.90
14783;DHT22;7483;50.498;12.138;2023-02-22T06:45:16;8.40;99.90
14783;DHT22;7483;50.498;12.138;2023-02-22T06:47:45;8.40;99.90
14783;DHT22;7483;50.498;12.138;2023-02-22T06:50:20;8.40;99.90
14783;DHT22;7483;50.498;12.138;2023-02-22T06:52:50;8.30;99.90
14783;DHT22;7483;50.498;12.138;2023-02-22T06:55:19;8.40;99.90
14783;DHT22;7483;50.498;12.138;2023-02-22T06:57:49;8.30;99.90
14783;DHT22;7483;50.498;12.138;2023-02-22T07:00:19;8.30;99.90
14783;DHT22;7483;50.498;12.138;2023-02-22T07:02:50;8.30;99.90
14783;DHT22;7483;50.498;12.138;2023-02-22T07:05:22;8.30;99.90
14783;DHT22;7483;50.498;12.138;2023-02-22T07:07:53;8.40;99.90
14783;DHT22;7483;50.498;12.138;2023-02-22T07:10:24;8.40;99.90
14783;DHT22;7483;50.498;12.138;2023-02-22T07:12:54;8.40;99.90
14783;DHT22;7483;50.498;12.138;2023-02-22T07:15:24;8.40;99.90
14783;DHT22;7483;50.498;12.138;2023-02-22T07:17:54;8.40;99.90
14783;DHT22;7483;50.498;12.138;2023-02-22T07:20:25;8.30;99.90
14783;DHT22;7483;50.498;12.138;2023-02-22T07:22:54;8.40;99.90
14783;DHT22;7483;50.498;12.138;2023-02-22T07:25:23;8.40;99.90
14783;DHT22;7483;50.498;12.138;2023-02-22T07:27:51;8.50;99.90
14783;DHT22;7483;50.498;12.138;2023-02-22T07:30:20;8.50;99.90
14783;DHT22;7483;50.498;12.138;2023-02-22T07:32:52;8.50;99.90
14783;DHT22;7483;50.498;12.138;2023-02-22T07:35:25;8.50;99.90
14783;DHT22;7483;50.498;12.138;2023-02-22T07:37:54;8.60;99.90
14783;DHT22;7483;50.498;12.138;2023-02-22T07:40:24;8.70;99.90
14783;DHT22;7483;50.498;12.138;2023-02-22T07:42:55;8.60;99.90
14783;DHT22;7483;50.498;12.138;2023-02-22T07:45:27;8.70;99.90
14783;DHT22;7483;50.498;12.138;2023-02-22T07:47:57;8.70;99.90
14783;DHT22;7483;50.498;12.138;2023-02-22T07:50:29;8.80;99.90
14783;DHT22;7483;50.498;12.138;2023-02-22T07:52:59;8.90;99.90
14783;DHT22;7483;50.498;12.138;2023-02-22T07:55:30;8.90;99.90
14783;DHT22;7483;50.498;12.138;2023-02-22T07:58:01;8.90;99.90
14783;DHT22;7483;50.498;12.138;2023-02-22T08:00:33;9.00;99.90
14783;DHT22;7483;50.498;12.138;2023-02-22T08:03:04;9.00;99.90
14783;DHT22;7483;50.498;12.138;2023-02-22T08:05:36;9.10;99.90
14783;DHT22;7483;50.498;12.138;2023-02-22T08:08:06;9.10;99.90
14783;DHT22;7483;50.498;12.138;2023-02-22T08:10:35;9.20;99.90
14783;DHT22;7483;50.498;12.138;2023-02-22T08:13:04;9.20;99.90
14783;DHT22;7483;50.498;12.138;2023-02-22T08:15:33;9.30;99.90
14783;DHT22;7483;50.498;12.138;2023-02-22T08:18:05;9.30;99.90
14783;DHT22;7483;50.498;12.138;2023-02-22T08:20:36;9.40;99.90
14783;DHT22;7483;50.498;12.138;2023-02-22T08:23:06;9.50;99.90
14783;DHT22;7483;50.498;12.138;2023-02-22T08:25:34;9.50;99.90
14783;DHT22;7483;50.498;12.138;2023-02-22T08:28:05;9.50;99.90
14783;DHT22;7483;50.498;12.138;2023-02-22T08:30:36;9.50;99.90
14783;DHT22;7483;50.498;12.138;2023-02-22T08:33:06;9.60;99.90
14783;DHT22;7483;50.498;12.138;2023-02-22T08:35:35;9.60;99.90
14783;DHT22;7483;50.498;12.138;2023-02-22T08:38:04;9.60;99.90
14783;DHT22;7483;50.498;12.138;2023-02-22T08:40:35;9.60;99.90
14783;DHT22;7483;50.498;12.138;2023-02-22T08:43:04;9.60;99.90
14783;DHT22;7483;50.498;12.138;2023-02-22T08:45:33;9.70;99.90
14783;DHT22;7483;50.498;12.138;2023-02-22T08:48:01;9.80;99.90
14783;DHT22;7483;50.498;12.138;2023-02-22T08:50:31;9.80;99.90
14783;DHT22;7483;50.498;12.138;2023-02-22T08:53:03;9.90;99.90
14783;DHT22;7483;50.498;12.138;2023-02-22T08:55:35;10.00;99.90
14783;DHT22;7483;50.498;12.138;2023-02-22T08:58:05;10.10;99.90
14783;DHT22;7483;50.498;12.138;2023-02-22T09:00:36;10.20;99.90
14783;DHT22;7483;50.498;12.138;2023-02-22T09:03:07;10.30;99.90
14783;DHT22;7483;50.498;12.138;2023-02-22T09:05:39;10.40;99.90
14783;DHT22;7483;50.498;12.138;2023-02-22T09:08:09;10.50;99.90
14783;DHT22;7483;50.498;12.138;2023-02-22T09:10:37;10.60;99.90
14783;DHT22;7483;50.498;12.138;2023-02-22T09:13:06;10.70;99.90
14783;DHT22;7483;50.498;12.138;2023-02-22T09:15:34;10.80;99.90
14783;DHT22;7483;50.498;12.138;2023-02-22T09:18:03;10.90;99.90
14783;DHT22;7483;50.498;12.138;2023-02-22T09:20:34;11.00;99.90
14783;DHT22;7483;50.498;12.138;2023-02-22T09:23:03;11.00;99.90
14783;DHT22;7483;50.498;12.138;2023-02-22T09:25:33;11.10;99.90
14783;DHT22;7483;50.498;12.138;2023-02-22T09:28:01;11.10;99.90
14783;DHT22;7483;50.498;12.138;2023-02-22T09:30:31;11.10;99.90
14783;DHT22;7483;50.498;12.138;2023-02-22T09:33:03;11.20;99.90
14783;DHT22;7483;50.498;12.138;2023-02-22T09:35:32;11.30;99.90
14783;DHT22;7483;50.498;12.138;2023-02-22T09:38:04;11.40;99.90
14783;DHT22;7483;50.498;12.138;2023-02-22T09:40:36;11.40;99.90
14783;DHT22;7483;50.498;12.138;2023-02-22T09:43:20;11.40;99.90
14783;DHT22;7483;50.498;12.138;2023-02-22T09:46:07;11.40;99.90
14783;DHT22;7483;50.498;12.138;2023-02-22T09:48:54;11.40;99.90
14783;DHT22;7483;50.498;12.138;2023-02-22T09:51:33;11.50;99.90
14783;DHT22;7483;50.498;12.138;2023-02-22T09:54:13;11.60;99.90
14783;DHT22;7483;50.498;12.138;2023-02-22T09:56:52;11.60;99.90
14783;DHT22;7483;50.498;12.138;2023-02-22T09:59:28;11.60;99.90
14783;DHT22;7483;50.498;12.138;2023-02-22T10:02:04;11.80;99.90
14783;DHT22;7483;50.498;12.138;2023-02-22T10:04:50;11.90;99.90
14783;DHT22;7483;50.498;12.138;2023-02-22T10:07:29;11.90;99.90
14783;DHT22;7483;50.498;12.138;2023-02-22T10:10:02;12.00;99.90
14783;DHT22;7483;50.498;12.138;2023-02-22T10:12:38;12.10;99.90
14783;DHT22;7483;50.498;12.138;2023-02-22T10:15:33;12.20;99.90
14783;DHT22;7483;50.498;12.138;2023-02-22T10:18:23;12.30;99.90
14783;DHT22;7483;50.498;12.138;2023-02-22T10:21:20;12.40;99.90
14783;DHT22;7483;50.498;12.138;2023-02-22T10:24:11;12.50;99.90
14783;DHT22;7483;50.498;12.138;2023-02-22T10:26:50;12.60;99.90
14783;DHT22;7483;50.498;12.138;2023-02-22T10:29:29;12.60;99.90
14783;DHT22;7483;50.498;12.138;2023-02-22T10:32:01;12.70;99.90
14783;DHT22;7483;50.498;12.138;2023-02-22T10:34:35;12.80;99.90
14783;DHT22;7483;50.498;12.138;2023-02-22T10:37:17;12.80;99.90
14783;DHT22;7483;50.498;12.138;2023-02-22T10:39:54;12.90;99.90
14783;DHT22;7483;50.498;12.138;2023-02-22T10:42:27;12.90;99.90
14783;DHT22;7483;50.498;12.138;2023-02-22T10:44:57;13.00;99.90
14783;DHT22;7483;50.498;12.138;2023-02-22T10:47:25;12.90;99.90
14783;DHT22;7483;50.498;12.138;2023-02-22T10:49:56;12.90;99.90
14783;DHT22;7483;50.498;12.138;2023-02-22T10:52:28;13.00;99.90
14783;DHT22;7483;50.498;12.138;2023-02-22T10:54:58;13.00;99.90
14783;DHT22;7483;50.498;12.138;2023-02-22T10:57:44;13.00;99.90
14783;DHT22;7483;50.498;12.138;2023-02-22T11:00:19;13.10;99.90
14783;DHT22;7483;50.498;12.138;2023-02-22T11:02:56;13.20;99.90
14783;DHT22;7483;50.498;12.138;2023-02-22T11:05:28;13.20;99.90
14783;DHT22;7483;50.498;12.138;2023-02-22T11:08:22;13.30;99.90
14783;DHT22;7483;50.498;12.138;2023-02-22T11:10:55;13.30;99.90
14783;DHT22;7483;50.498;12.138;2023-02-22T11:13:29;13.30;99.90
14783;DHT22;7483;50.498;12.138;2023-02-22T11:16:03;13.30;99.90
14783;DHT22;7483;50.498;12.138;2023-02-22T11:18:46;13.40;99.90
14783;DHT22;7483;50.498;12.138;2023-02-22T11:21:21;13.40;99.90
14783;DHT22;7483;50.498;12.138;2023-02-22T11:24:00;13.60;99.90
14783;DHT22;7483;50.498;12.138;2023-02-22T11:26:36;13.60;99.90
14783;DHT22;7483;50.498;12.138;2023-02-22T11:29:11;13.60;99.90
14783;DHT22;7483;50.498;12.138;2023-02-22T11:31:46;13.70;99.90
14783;DHT22;7483;50.498;12.138;2023-02-22T11:34:32;13.60;99.90
14783;DHT22;7483;50.498;12.138;2023-02-22T11:37:17;13.50;99.90
14783;DHT22;7483;50.498;12.138;2023-02-22T11:40:12;13.60;99.90
14783;DHT22;7483;50.498;12.138;2023-02-22T11:42:45;13.80;99.90
14783;DHT22;7483;50.498;12.138;2023-02-22T11:45:15;13.80;99.90
14783;DHT22;7483;50.498;12.138;2023-02-22T11:47:50;13.90;99.90
14783;DHT22;7483;50.498;12.138;2023-02-22T11:50:25;14.00;99.90
14783;DHT22;7483;50.498;12.138;2023-02-22T11:53:22;13.90;99.90
14783;DHT22;7483;50.498;12.138;2023-02-22T11:56:08;13.90;99.90
14783;DHT22;7483;50.498;12.138;2023-02-22T11:58:45;13.90;99.90
14783;DHT22;7483;50.498;12.138;2023-02-22T12:01:23;14.00;99.90
14783;DHT22;7483;50.498;12.138;2023-02-22T12:04:20;13.90;99.90
14783;DHT22;7483;50.498;12.138;2023-02-22T12:07:09;13.90;99.90
14783;DHT22;7483;50.498;12.138;2023-02-22T12:09:50;14.00;99.90
14783;DHT22;7483;50.498;12.138;2023-02-22T12:12:30;14.00;99.90
14783;DHT22;7483;50.498;12.138;2023-02-22T12:15:12;14.10;99.90
14783;DHT22;7483;50.498;12.138;2023-02-22T12:17:53;14.10;99.90
14783;DHT22;7483;50.498;12.138;2023-02-22T12:20:32;14.10;99.90
14783;DHT22;7483;50.498;12.138;2023-02-22T12:23:14;14.10;99.90
14783;DHT22;7483;50.498;12.138;2023-02-22T12:25:55;14.20;99.90
14783;DHT22;7483;50.498;12.138;2023-02-22T12:28:31;14.50;99.90
14783;DHT22;7483;50.498;12.138;2023-02-22T12:31:09;14.70;99.90
14783;DHT22;7483;50.498;12.138;2023-02-22T12:33:50;14.90;99.90
14783;DHT22;7483;50.498;12.138;2023-02-22T12:36:32;15.10;99.90
14783;DHT22;7483;50.498;12.138;2023-02-22T12:39:10;15.30;99.90
14783;DHT22;7483;50.498;12.138;2023-02-22T12:41:54;15.60;99.90
14783;DHT22;7483;50.498;12.138;2023-02-22T12:44:25;15.80;99.90
14783;DHT22;7483;50.498;12.138;2023-02-22T12:46:58;16.10;99.90
14783;DHT22;7483;50.498;12.138;2023-02-22T12:49:31;16.20;99.90
14783;DHT22;7483;50.498;12.138;2023-02-22T12:52:11;16.20;99.90
14783;DHT22;7483;50.498;12.138;2023-02-22T12:54:52;15.80;99.90
14783;DHT22;7483;50.498;12.138;2023-02-22T12:57:33;15.50;99.90
14783;DHT22;7483;50.498;12.138;2023-02-22T13:00:10;15.50;99.90
14783;DHT22;7483;50.498;12.138;2023-02-22T13:02:53;15.60;99.90
14783;DHT22;7483;50.498;12.138;2023-02-22T13:05:33;15.60;99.90
14783;DHT22;7483;50.498;12.138;2023-02-22T13:08:22;15.40;99.90
14783;DHT22;7483;50.498;12.138;2023-02-22T13:11:00;15.30;99.90
14783;DHT22;7483;50.498;12.138;2023-02-22T13:13:44;15.30;99.90
14783;DHT22;7483;50.498;12.138;2023-02-22T13:16:34;15.30;99.90
14783;DHT22;7483;50.498;12.138;2023-02-22T13:19:15;15.30;99.90
14783;DHT22;7483;50.498;12.138;2023-02-22T13:21:56;15.40;99.90
14783;DHT22;7483;50.498;12.138;2023-02-22T13:24:34;15.40;99.90
14783;DHT22;7483;50.498;12.138;2023-02-22T13:27:15;15.40;99.90
14783;DHT22;7483;50.498;12.138;2023-02-22T13:29:48;15.50;99.90
14783;DHT22;7483;50.498;12.138;2023-02-22T13:32:32;15.50;99.90
14783;DHT22;7483;50.498;12.138;2023-02-22T13:35:24;15.70;99.90
14783;DHT22;7483;50.498;12.138;2023-02-22T13:38:17;15.80;99.90
14783;DHT22;7483;50.498;12.138;2023-02-22T13:48:10;15.60;99.90
14783;DHT22;7483;50.498;12.138;2023-02-22T13:51:10;15.60;99.90
14783;DHT22;7483;50.498;12.138;2023-02-22T13:53:49;15.50;99.90
14783;DHT22;7483;50.498;12.138;2023-02-22T13:56:23;15.50;99.90
14783;DHT22;7483;50.498;12.138;2023-02-22T13:58:56;15.40;99.90
14783;DHT22;7483;50.498;12.138;2023-02-22T14:01:43;15.20;99.90
14783;DHT22;7483;50.498;12.138;2023-02-22T14:04:21;15.20;99.90
14783;DHT22;7483;50.498;12.138;2023-02-22T14:07:01;15.10;99.90
14783;DHT22;7483;50.498;12.138;2023-02-22T14:09:43;15.10;99.90
14783;DHT22;7483;50.498;12.138;2023-02-22T14:12:49;15.10;99.90
14783;DHT22;7483;50.498;12.138;2023-02-22T14:15:18;15.10;99.90
14783;DHT22;7483;50.498;12.138;2023-02-22T14:17:58;15.10;99.90
14783;DHT22;7483;50.498;12.138;2023-02-22T14:20:29;15.00;99.90
14783;DHT22;7483;50.498;12.138;2023-02-22T14:23:26;15.00;99.90
14783;DHT22;7483;50.498;12.138;2023-02-22T14:26:10;14.90;99.90
14783;DHT22;7483;50.498;12.138;2023-02-22T14:28:49;15.00;99.90
14783;DHT22;7483;50.498;12.138;2023-02-22T14:31:22;15.10;99.90
14783;DHT22;7483;50.498;12.138;2023-02-22T14:34:07;15.00;99.90
14783;DHT22;7483;50.498;12.138;2023-02-22T14:36:50;15.10;99.90
14783;DHT22;7483;50.498;12.138;2023-02-22T14:39:24;15.10;99.90
14783;DHT22;7483;50.498;12.138;2023-02-22T14:42:01;15.10;99.90
14783;DHT22;7483;50.498;12.138;2023-02-22T14:44:37;15.10;99.90
14783;DHT22;7483;50.498;12.138;2023-02-22T14:47:17;15.10;99.90
14783;DHT22;7483;50.498;12.138;2023-02-22T14:49:50;15.10;99.90
14783;DHT22;7483;50.498;12.138;2023-02-22T14:52:24;15.20;99.90
14783;DHT22;7483;50.498;12.138;2023-02-22T14:54:59;15.10;99.90
14783;DHT22;7483;50.498;12.138;2023-02-22T14:57:42;15.00;99.90
14783;DHT22;7483;50.498;12.138;2023-02-22T15:00:22;14.90;99.90
14783;DHT22;7483;50.498;12.138;2023-02-22T15:02:58;14.80;99.90
14783;DHT22;7483;50.498;12.138;2023-02-22T15:05:28;14.70;99.90
14783;DHT22;7483;50.498;12.138;2023-02-22T15:08:06;14.80;99.90
14783;DHT22;7483;50.498;12.138;2023-02-22T15:10:40;14.80;99.90
14783;DHT22;7483;50.498;12.138;2023-02-22T15:13:15;14.80;99.90
14783;DHT22;7483;50.498;12.138;2023-02-22T15:15:48;14.70;99.90
14783;DHT22;7483;50.498;12.138;2023-02-22T15:18:23;14.70;99.90
14783;DHT22;7483;50.498;12.138;2023-02-22T15:20:56;14.70;99.90
14783;DHT22;7483;50.498;12.138;2023-02-22T15:23:39;14.60;99.90
14783;DHT22;7483;50.498;12.138;2023-02-22T15:26:22;14.50;99.90
14783;DHT22;7483;50.498;12.138;2023-02-22T15:28:54;14.50;99.90
14783;DHT22;7483;50.498;12.138;2023-02-22T15:31:29;14.50;99.90
14783;DHT22;7483;50.498;12.138;2023-02-22T15:34:09;14.40;99.90
14783;DHT22;7483;50.498;12.138;2023-02-22T15:36:48;14.40;99.90
14783;DHT22;7483;50.498;12.138;2023-02-22T15:39:22;14.40;99.90
14783;DHT22;7483;50.498;12.138;2023-02-22T15:42:04;14.40;99.90
14783;DHT22;7483;50.498;12.138;2023-02-22T15:44:35;14.40;99.90
14783;DHT22;7483;50.498;12.138;2023-02-22T15:47:11;14.40;99.90
14783;DHT22;7483;50.498;12.138;2023-02-22T15:49:43;14.40;99.90
14783;DHT22;7483;50.498;12.138;2023-02-22T15:52:17;14.40;99.90
14783;DHT22;7483;50.498;12.138;2023-02-22T15:54:51;14.30;99.90
14783;DHT22;7483;50.498;12.138;2023-02-22T15:57:21;14.20;99.90
14783;DHT22;7483;50.498;12.138;2023-02-22T15:59:52;14.20;99.90
14783;DHT22;7483;50.498;12.138;2023-02-22T16:02:33;14.10;99.90
14783;DHT22;7483;50.498;12.138;2023-02-22T16:05:06;14.00;99.90
14783;DHT22;7483;50.498;12.138;2023-02-22T16:07:38;14.00;99.90
14783;DHT22;7483;50.498;12.138;2023-02-22T16:10:24;14.00;99.90
14783;DHT22;7483;50.498;12.138;2023-02-22T16:13:17;14.00;99.90
14783;DHT22;7483;50.498;12.138;2023-02-22T16:15:58;14.00;99.90
14783;DHT22;7483;50.498;12.138;2023-02-22T16:18:32;13.90;99.90
14783;DHT22;7483;50.498;12.138;2023-02-22T16:21:05;13.80;99.90
14783;DHT22;7483;50.498;12.138;2023-02-22T16:23:45;13.80;99.90
14783;DHT22;7483;50.498;12.138;2023-02-22T16:26:20;13.80;99.90
14783;DHT22;7483;50.498;12.138;2023-02-22T16:28:53;13.80;99.90
14783;DHT22;7483;50.498;12.138;2023-02-22T16:31:24;13.80;99.90
14783;DHT22;7483;50.498;12.138;2023-02-22T16:33:55;13.80;99.90